sensor_id;sensor_type;location;lat;lon;timestamp;pressure;altitude;pressure_sealevel;temperature;humidity
56630;BME280;42502;40.732;-74.254;2023-04-03T00:00:57;100753.72;;;22.40;33.20
56630;BME280;42502;40.732;-74.254;2023-04-03T00:03:04;100775.06;;;22.41;32.94
56630;BME280;42502;40.732;-74.254;2023-04-03T00:05:05;100768.88;;;22.35;33.15
56630;BME280;42502;40.732;-74.254;2023-04-03T00:07:06;100780.22;;;22.39;33.21
56630;BME280;42502;40.732;-74.254;2023-04-03T00:09:07;100782.59;;;22.37;32.96
56630;BME280;42502;40.732;-74.254;2023-04-03T00:11:08;100777.75;;;22.38;33.04
56630;BME280;42502;40.732;-74.254;2023-04-03T00:13:09;100786.56;;;22.36;33.07
56630;BME280;42502;40.732;-74.254;2023-04-03T00:15:13;100791.75;;;22.34;32.99
56630;BME280;42502;40.732;-74.254;2023-04-03T00:17:17;100794.44;;;22.30;33.09
56630;BME280;42502;40.732;-74.254;2023-04-03T00:19:18;100805.25;;;22.28;32.84
56630;BME280;42502;40.732;-74.254;2023-04-03T00:21:19;100816.94;;;22.30;32.92
56630;BME280;42502;40.732;-74.254;2023-04-03T00:23:20;100817.81;;;22.31;32.86
56630;BME280;42502;40.732;-74.254;2023-04-03T00:25:22;100815.34;;;22.29;32.80
56630;BME280;42502;40.732;-74.254;2023-04-03T00:27:23;100830.56;;;22.28;32.80
56630;BME280;42502;40.732;-74.254;2023-04-03T00:29:23;100820.78;;;22.22;32.83
56630;BME280;42502;40.732;-74.254;2023-04-03T00:31:24;100839.66;;;22.22;32.87
56630;BME280;42502;40.732;-74.254;2023-04-03T00:33:25;100846.47;;;22.21;32.60
56630;BME280;42502;40.732;-74.254;2023-04-03T00:35:27;100847.25;;;22.21;32.80
56630;BME280;42502;40.732;-74.254;2023-04-03T00:37:28;100850.44;;;22.19;32.60
56630;BME280;42502;40.732;-74.254;2023-04-03T00:39:29;100850.44;;;22.19;32.53
56630;BME280;42502;40.732;-74.254;2023-04-03T00:41:30;100854.81;;;22.17;32.62
56630;BME280;42502;40.732;-74.254;2023-04-03T00:43:35;100848.63;;;22.11;32.44
56630;BME280;42502;40.732;-74.254;2023-04-03T00:45:38;100871.59;;;22.13;32.46
56630;BME280;42502;40.732;-74.254;2023-04-03T00:47:40;100875.47;;;22.09;32.59
56630;BME280;42502;40.732;-74.254;2023-04-03T00:49:43;100879.22;;;22.13;32.35
56630;BME280;42502;40.732;-74.254;2023-04-03T00:51:45;100893.63;;;22.11;32.47
56630;BME280;42502;40.732;-74.254;2023-04-03T00:53:49;100892.72;;;22.07;32.30
56630;BME280;42502;40.732;-74.254;2023-04-03T00:55:52;100899.53;;;22.06;32.39
56630;BME280;42502;40.732;-74.254;2023-04-03T00:57:55;100909.16;;;22.05;32.54
56630;BME280;42502;40.732;-74.254;2023-04-03T01:00:03;100920.75;;;22.04;32.41
56630;BME280;42502;40.732;-74.254;2023-04-03T01:02:07;100908.50;;;21.96;32.42
56630;BME280;42502;40.732;-74.254;2023-04-03T01:06:32;100927.91;;;22.01;32.38
56630;BME280;42502;40.732;-74.254;2023-04-03T01:08:34;100926.25;;;22.00;32.12
56630;BME280;42502;40.732;-74.254;2023-04-03T01:10:35;100930.28;;;21.99;32.32
56630;BME280;42502;40.732;-74.254;2023-04-03T01:12:39;100926.09;;;21.93;32.02
56630;BME280;42502;40.732;-74.254;2023-04-03T01:14:40;100948.69;;;21.96;32.04
56630;BME280;42502;40.732;-74.254;2023-04-03T01:16:41;100949.03;;;21.95;32.05
56630;BME280;42502;40.732;-74.254;2023-04-03T01:18:42;100950.19;;;21.94;32.01
56630;BME280;42502;40.732;-74.254;2023-04-03T01:25:13;100966.63;;;21.92;32.09
56630;BME280;42502;40.732;-74.254;2023-04-03T01:27:17;100956.44;;;21.87;32.39
56630;BME280;42502;40.732;-74.254;2023-04-03T01:29:18;100968.72;;;21.95;32.43
56630;BME280;42502;40.732;-74.254;2023-04-03T01:31:27;100965.19;;;21.98;32.40
56630;BME280;42502;40.732;-74.254;2023-04-03T01:33:29;100962.28;;;21.94;32.28
56630;BME280;42502;40.732;-74.254;2023-04-03T01:35:30;100976.56;;;22.02;32.12
56630;BME280;42502;40.732;-74.254;2023-04-03T01:37:34;100976.22;;;22.03;32.05
56630;BME280;42502;40.732;-74.254;2023-04-03T01:39:35;100979.72;;;22.00;32.08
56630;BME280;42502;40.732;-74.254;2023-04-03T01:41:36;100984.88;;;21.98;32.01
56630;BME280;42502;40.732;-74.254;2023-04-03T01:43:36;100987.81;;;22.02;32.10
56630;BME280;42502;40.732;-74.254;2023-04-03T01:45:37;100994.34;;;22.06;31.89
56630;BME280;42502;40.732;-74.254;2023-04-03T01:47:38;101003.63;;;22.06;31.96
56630;BME280;42502;40.732;-74.254;2023-04-03T01:49:39;101008.06;;;22.07;32.16
56630;BME280;42502;40.732;-74.254;2023-04-03T01:51:40;101006.91;;;22.08;32.10
56630;BME280;42502;40.732;-74.254;2023-04-03T01:53:41;100996.44;;;22.09;32.20
56630;BME280;42502;40.732;-74.254;2023-04-03T01:55:41;100991.19;;;22.07;32.31
56630;BME280;42502;40.732;-74.254;2023-04-03T01:57:48;100992.13;;;22.11;32.10
56630;BME280;42502;40.732;-74.254;2023-04-03T01:59:51;100986.94;;;22.13;32.40
56630;BME280;42502;40.732;-74.254;2023-04-03T02:01:52;100983.75;;;22.15;32.24
56630;BME280;42502;40.732;-74.254;2023-04-03T02:03:56;100987.88;;;22.17;32.33
56630;BME280;42502;40.732;-74.254;2023-04-03T02:05:57;100992.69;;;22.17;32.24
56630;BME280;42502;40.732;-74.254;2023-04-03T02:07:58;100991.13;;;22.19;32.19
56630;BME280;42502;40.732;-74.254;2023-04-03T02:09:59;100991.97;;;22.20;32.12
56630;BME280;42502;40.732;-74.254;2023-04-03T02:11:59;100976.63;;;22.17;32.19
56630;BME280;42502;40.732;-74.254;2023-04-03T02:14:00;100981.88;;;22.19;32.20
56630;BME280;42502;40.732;-74.254;2023-04-03T02:16:10;100990.41;;;22.23;32.30
56630;BME280;42502;40.732;-74.254;2023-04-03T02:18:12;100992.88;;;22.24;32.07
56630;BME280;42502;40.732;-74.254;2023-04-03T02:20:13;100986.06;;;22.25;32.06
56630;BME280;42502;40.732;-74.254;2023-04-03T02:22:20;100978.81;;;22.24;31.97
56630;BME280;42502;40.732;-74.254;2023-04-03T02:24:21;100977.53;;;22.22;32.19
56630;BME280;42502;40.732;-74.254;2023-04-03T02:26:22;100977.06;;;22.19;32.22
56630;BME280;42502;40.732;-74.254;2023-04-03T02:28:26;100982.09;;;22.26;31.87
56630;BME280;42502;40.732;-74.254;2023-04-03T02:30:27;100974.25;;;22.19;32.26
56630;BME280;42502;40.732;-74.254;2023-04-03T02:32:28;100999.78;;;22.27;31.89
56630;BME280;42502;40.732;-74.254;2023-04-03T02:34:29;100996.63;;;22.28;32.25
56630;BME280;42502;40.732;-74.254;2023-04-03T11:34:59;101273.13;;;17.33;32.96
56630;BME280;42502;40.732;-74.254;2023-04-03T11:37:10;101285.09;;;17.56;32.54
56630;BME280;42502;40.732;-74.254;2023-04-03T11:39:26;101284.25;;;17.78;32.06
56630;BME280;42502;40.732;-74.254;2023-04-03T11:41:31;101287.16;;;17.96;31.62
56630;BME280;42502;40.732;-74.254;2023-04-03T11:43:41;101279.69;;;18.14;31.55
56630;BME280;42502;40.732;-74.254;2023-04-03T11:50:41;101277.50;;;18.51;30.81
56630;BME280;42502;40.732;-74.254;2023-04-03T11:54:46;101274.06;;;18.62;30.66
56630;BME280;42502;40.732;-74.254;2023-04-03T11:56:47;101271.78;;;18.64;30.18
56630;BME280;42502;40.732;-74.254;2023-04-03T12:01:53;101260.09;;;18.71;30.13
56630;BME280;42502;40.732;-74.254;2023-04-03T12:04:06;101249.06;;;18.75;30.50
56630;BME280;42502;40.732;-74.254;2023-04-03T12:13:16;101241.47;;;18.84;30.26
56630;BME280;42502;40.732;-74.254;2023-04-03T12:15:23;101224.69;;;18.84;30.40
56630;BME280;42502;40.732;-74.254;2023-04-03T12:17:27;101217.13;;;18.85;30.79
56630;BME280;42502;40.732;-74.254;2023-04-03T12:19:38;101201.19;;;18.85;30.84
56630;BME280;42502;40.732;-74.254;2023-04-03T12:26:21;101192.59;;;18.90;31.34
56630;BME280;42502;40.732;-74.254;2023-04-03T12:28:27;101191.97;;;18.93;31.36
56630;BME280;42502;40.732;-74.254;2023-04-03T12:30:30;101181.09;;;18.92;31.72
56630;BME280;42502;40.732;-74.254;2023-04-03T12:37:37;101167.75;;;18.97;31.44
56630;BME280;42502;40.732;-74.254;2023-04-03T12:39:56;101179.78;;;18.98;31.51
56630;BME280;42502;40.732;-74.254;2023-04-03T12:44:43;101176.31;;;19.01;31.81
56630;BME280;42502;40.732;-74.254;2023-04-03T12:46:50;101175.13;;;19.02;32.08
56630;BME280;42502;40.732;-74.254;2023-04-03T12:48:54;101173.19;;;19.03;31.97
56630;BME280;42502;40.732;-74.254;2023-04-03T12:50:57;101169.53;;;19.02;32.00
56630;BME280;42502;40.732;-74.254;2023-04-03T12:55:20;101177.13;;;19.02;31.87
56630;BME280;42502;40.732;-74.254;2023-04-03T12:57:25;101184.38;;;19.03;31.88
56630;BME280;42502;40.732;-74.254;2023-04-03T12:59:27;101191.94;;;19.02;32.02
56630;BME280;42502;40.732;-74.254;2023-04-03T13:01:27;101188.00;;;19.03;31.70
56630;BME280;42502;40.732;-74.254;2023-04-03T13:03:29;101195.59;;;19.03;31.71
56630;BME280;42502;40.732;-74.254;2023-04-03T13:05:31;101201.19;;;19.03;31.91
56630;BME280;42502;40.732;-74.254;2023-04-03T13:07:35;101194.41;;;19.04;31.84
56630;BME280;42502;40.732;-74.254;2023-04-03T13:09:38;101185.53;;;19.02;32.03
56630;BME280;42502;40.732;-74.254;2023-04-03T13:11:41;101200.00;;;19.04;32.06
56630;BME280;42502;40.732;-74.254;2023-04-03T13:13:59;101196.56;;;18.98;32.05
56630;BME280;42502;40.732;-74.254;2023-04-03T13:16:08;101196.56;;;18.98;31.65
56630;BME280;42502;40.732;-74.254;2023-04-03T13:18:31;101202.81;;;19.04;31.83
56630;BME280;42502;40.732;-74.254;2023-04-03T13:20:37;101197.88;;;19.00;31.88
56630;BME280;42502;40.732;-74.254;2023-04-03T13:22:52;101197.72;;;19.06;31.84
56630;BME280;42502;40.732;-74.254;2023-04-03T13:24:56;101216.16;;;19.07;32.08
56630;BME280;42502;40.732;-74.254;2023-04-03T13:26:59;101204.13;;;19.06;31.78
56630;BME280;42502;40.732;-74.254;2023-04-03T13:29:06;101199.19;;;19.03;32.02
56630;BME280;42502;40.732;-74.254;2023-04-03T13:33:24;101205.59;;;19.04;31.92
56630;BME280;42502;40.732;-74.254;2023-04-03T13:35:40;101210.88;;;19.05;31.93
56630;BME280;42502;40.732;-74.254;2023-04-03T13:37:54;101215.34;;;19.06;31.69
56630;BME280;42502;40.732;-74.254;2023-04-03T13:42:15;101207.41;;;19.08;31.79
56630;BME280;42502;40.732;-74.254;2023-04-03T13:46:28;101190.47;;;19.05;31.85
56630;BME280;42502;40.732;-74.254;2023-04-03T13:48:35;101210.41;;;19.12;31.77
56630;BME280;42502;40.732;-74.254;2023-04-03T13:50:58;101195.56;;;19.11;31.91
56630;BME280;42502;40.732;-74.254;2023-04-03T13:53:11;101190.47;;;19.13;31.86
56630;BME280;42502;40.732;-74.254;2023-04-03T13:56:05;101182.38;;;19.12;31.67
56630;BME280;42502;40.732;-74.254;2023-04-03T14:02:33;101170.84;;;19.13;32.01
56630;BME280;42502;40.732;-74.254;2023-04-03T14:06:37;101169.84;;;19.18;31.97
56630;BME280;42502;40.732;-74.254;2023-04-03T14:08:38;101167.88;;;19.18;32.02
56630;BME280;42502;40.732;-74.254;2023-04-03T14:10:39;101174.28;;;19.19;31.95
56630;BME280;42502;40.732;-74.254;2023-04-03T14:12:40;101161.13;;;19.20;31.75
56630;BME280;42502;40.732;-74.254;2023-04-03T14:14:41;101151.88;;;19.19;31.86
56630;BME280;42502;40.732;-74.254;2023-04-03T14:16:46;101157.16;;;19.21;31.93
56630;BME280;42502;40.732;-74.254;2023-04-03T14:18:49;101156.84;;;19.22;31.99
56630;BME280;42502;40.732;-74.254;2023-04-03T14:20:51;101152.72;;;19.20;31.93
56630;BME280;42502;40.732;-74.254;2023-04-03T14:22:52;101145.63;;;19.22;31.93
56630;BME280;42502;40.732;-74.254;2023-04-03T14:24:56;101151.25;;;19.22;31.75
56630;BME280;42502;40.732;-74.254;2023-04-03T14:27:05;101150.56;;;19.25;31.99
56630;BME280;42502;40.732;-74.254;2023-04-03T14:29:13;101150.25;;;19.27;31.77
56630;BME280;42502;40.732;-74.254;2023-04-03T14:31:15;101144.97;;;19.25;31.75
56630;BME280;42502;40.732;-74.254;2023-04-03T14:33:20;101152.38;;;19.30;31.86
56630;BME280;42502;40.732;-74.254;2023-04-03T14:35:22;101141.84;;;19.27;31.90
56630;BME280;42502;40.732;-74.254;2023-04-03T14:37:26;101154.84;;;19.31;31.56
56630;BME280;42502;40.732;-74.254;2023-04-03T14:39:28;101150.72;;;19.29;31.59
56630;BME280;42502;40.732;-74.254;2023-04-03T14:41:29;101152.50;;;19.33;31.72
56630;BME280;42502;40.732;-74.254;2023-04-03T14:43:30;101156.13;;;19.34;31.89
56630;BME280;42502;40.732;-74.254;2023-04-03T14:45:36;101157.44;;;19.37;31.79
56630;BME280;42502;40.732;-74.254;2023-04-03T14:47:52;101156.13;;;19.34;31.89
56630;BME280;42502;40.732;-74.254;2023-04-03T14:49:53;101163.53;;;19.39;32.07
56630;BME280;42502;40.732;-74.254;2023-04-03T14:51:54;101157.94;;;19.39;32.07
56630;BME280;42502;40.732;-74.254;2023-04-03T14:53:58;101154.78;;;19.40;32.03
56630;BME280;42502;40.732;-74.254;2023-04-03T14:55:59;101144.41;;;19.41;31.74
56630;BME280;42502;40.732;-74.254;2023-04-03T14:58:00;101144.91;;;19.43;31.71
56630;BME280;42502;40.732;-74.254;2023-04-03T15:00:04;101145.72;;;19.43;31.84
56630;BME280;42502;40.732;-74.254;2023-04-03T15:02:35;101126.78;;;19.40;31.85
56630;BME280;42502;40.732;-74.254;2023-04-03T15:04:36;101135.97;;;19.49;31.96
56630;BME280;42502;40.732;-74.254;2023-04-03T15:06:37;101133.16;;;19.49;31.88
56630;BME280;42502;40.732;-74.254;2023-04-03T15:08:38;101134.16;;;19.53;31.63
56630;BME280;42502;40.732;-74.254;2023-04-03T15:10:41;101128.53;;;19.53;31.71
56630;BME280;42502;40.732;-74.254;2023-04-03T15:12:45;101123.78;;;19.54;31.61
56630;BME280;42502;40.732;-74.254;2023-04-03T15:14:47;101120.78;;;19.59;31.81
56630;BME280;42502;40.732;-74.254;2023-04-03T15:16:48;101104.81;;;19.51;31.69
56630;BME280;42502;40.732;-74.254;2023-04-03T15:18:49;101111.69;;;19.62;31.61
56630;BME280;42502;40.732;-74.254;2023-04-03T15:20:50;101108.88;;;19.62;31.73
56630;BME280;42502;40.732;-74.254;2023-04-03T15:22:54;101107.75;;;19.63;31.73
56630;BME280;42502;40.732;-74.254;2023-04-03T15:24:56;101104.72;;;19.68;31.79
56630;BME280;42502;40.732;-74.254;2023-04-03T15:26:57;101104.41;;;19.70;31.72
56630;BME280;42502;40.732;-74.254;2023-04-03T15:28:58;101106.84;;;19.71;31.79
56630;BME280;42502;40.732;-74.254;2023-04-03T15:30:59;101101.72;;;19.74;31.75
56630;BME280;42502;40.732;-74.254;2023-04-03T15:33:00;101095.78;;;19.75;31.62
56630;BME280;42502;40.732;-74.254;2023-04-03T15:35:01;101089.69;;;19.73;31.66
56630;BME280;42502;40.732;-74.254;2023-04-03T15:37:02;101086.38;;;19.80;31.67
56630;BME280;42502;40.732;-74.254;2023-04-03T15:39:03;101081.28;;;19.82;31.53
56630;BME280;42502;40.732;-74.254;2023-04-03T15:41:04;101084.09;;;19.82;31.57
56630;BME280;42502;40.732;-74.254;2023-04-03T15:43:06;101078.25;;;19.87;31.69
56630;BME280;42502;40.732;-74.254;2023-04-03T15:45:07;101073.50;;;19.87;31.45
56630;BME280;42502;40.732;-74.254;2023-04-03T15:47:09;101069.50;;;19.88;31.53
56630;BME280;42502;40.732;-74.254;2023-04-03T15:49:13;101068.50;;;19.93;31.62
56630;BME280;42502;40.732;-74.254;2023-04-03T15:51:14;101059.63;;;19.91;31.45
56630;BME280;42502;40.732;-74.254;2023-04-03T15:53:15;101057.44;;;19.97;31.44
56630;BME280;42502;40.732;-74.254;2023-04-03T15:55:15;101048.69;;;19.98;31.33
56630;BME280;42502;40.732;-74.254;2023-04-03T15:57:24;101037.47;;;19.98;31.53
56630;BME280;42502;40.732;-74.254;2023-04-03T15:59:27;101044.84;;;20.03;31.47
56630;BME280;42502;40.732;-74.254;2023-04-03T16:01:31;101039.72;;;20.05;31.75
56630;BME280;42502;40.732;-74.254;2023-04-03T16:03:32;101031.28;;;20.05;31.48
56630;BME280;42502;40.732;-74.254;2023-04-03T16:05:33;101025.81;;;20.09;31.53
56630;BME280;42502;40.732;-74.254;2023-04-03T16:07:37;101001.34;;;19.97;31.21
56630;BME280;42502;40.732;-74.254;2023-04-03T16:09:41;101016.38;;;20.13;31.32
56630;BME280;42502;40.732;-74.254;2023-04-03T16:11:42;101011.59;;;20.14;31.39
56630;BME280;42502;40.732;-74.254;2023-04-03T16:13:43;101015.03;;;20.19;31.27
56630;BME280;42502;40.732;-74.254;2023-04-03T16:15:44;101002.97;;;20.19;31.25
56630;BME280;42502;40.732;-74.254;2023-04-03T16:17:45;101007.53;;;20.23;31.31
56630;BME280;42502;40.732;-74.254;2023-04-03T16:19:48;100996.66;;;20.22;31.42
56630;BME280;42502;40.732;-74.254;2023-04-03T16:21:49;100992.81;;;20.27;31.21
56630;BME280;42502;40.732;-74.254;2023-04-03T16:23:50;100995.78;;;20.30;31.14
56630;BME280;42502;40.732;-74.254;2023-04-03T16:25:51;100987.38;;;20.30;31.39
56630;BME280;42502;40.732;-74.254;2023-04-03T16:27:52;101000.34;;;20.35;31.51
56630;BME280;42502;40.732;-74.254;2023-04-03T16:29:54;100979.41;;;20.32;31.34
56630;BME280;42502;40.732;-74.254;2023-04-03T16:31:57;100985.75;;;20.41;31.09
56630;BME280;42502;40.732;-74.254;2023-04-03T16:34:00;100981.78;;;20.42;31.32
56630;BME280;42502;40.732;-74.254;2023-04-03T16:36:01;100973.03;;;20.44;31.13
56630;BME280;42502;40.732;-74.254;2023-04-03T16:38:05;100956.66;;;20.46;31.31
56630;BME280;42502;40.732;-74.254;2023-04-03T16:40:07;100968.47;;;20.52;31.36
56630;BME280;42502;40.732;-74.254;2023-04-03T16:42:08;100963.34;;;20.54;31.33
56630;BME280;42502;40.732;-74.254;2023-04-03T16:44:10;100962.63;;;20.57;31.45
56630;BME280;42502;40.732;-74.254;2023-04-03T16:46:13;100962.78;;;20.61;31.38
56630;BME280;42502;40.732;-74.254;2023-04-03T16:48:14;100961.25;;;20.63;31.29
56630;BME280;42502;40.732;-74.254;2023-04-03T16:50:15;100950.84;;;20.64;31.42
56630;BME280;42502;40.732;-74.254;2023-04-03T16:52:16;100958.25;;;20.68;31.28
56630;BME280;42502;40.732;-74.254;2023-04-03T16:54:17;100948.66;;;20.69;31.17
56630;BME280;42502;40.732;-74.254;2023-04-03T16:56:18;100941.53;;;20.72;31.26
56630;BME280;42502;40.732;-74.254;2023-04-03T16:58:19;100933.56;;;20.74;31.40
56630;BME280;42502;40.732;-74.254;2023-04-03T17:00:20;100930.75;;;20.74;31.33
56630;BME280;42502;40.732;-74.254;2023-04-03T17:02:21;100925.75;;;20.80;31.31
56630;BME280;42502;40.732;-74.254;2023-04-03T17:04:25;100925.03;;;20.83;31.13
56630;BME280;42502;40.732;-74.254;2023-04-03T17:06:26;100923.53;;;20.85;31.06
56630;BME280;42502;40.732;-74.254;2023-04-03T17:08:27;100913.00;;;20.82;31.37
56630;BME280;42502;40.732;-74.254;2023-04-03T17:10:28;100913.72;;;20.91;31.17
56630;BME280;42502;40.732;-74.254;2023-04-03T17:12:29;100904.94;;;20.93;31.36
56630;BME280;42502;40.732;-74.254;2023-04-03T17:14:30;100891.84;;;20.97;31.36
56630;BME280;42502;40.732;-74.254;2023-04-03T17:16:34;100897.81;;;20.96;31.31
56630;BME280;42502;40.732;-74.254;2023-04-03T17:18:35;100896.25;;;20.98;31.51
56630;BME280;42502;40.732;-74.254;2023-04-03T17:20:37;100904.13;;;21.05;31.48
56630;BME280;42502;40.732;-74.254;2023-04-03T17:22:38;100897.44;;;21.09;31.60
56630;BME280;42502;40.732;-74.254;2023-04-03T17:24:40;100886.66;;;21.11;31.64
56630;BME280;42502;40.732;-74.254;2023-04-03T17:26:44;100892.41;;;21.15;31.73
56630;BME280;42502;40.732;-74.254;2023-04-03T17:28:44;100889.09;;;21.13;31.65
56630;BME280;42502;40.732;-74.254;2023-04-03T17:30:45;100878.09;;;21.20;31.67
56630;BME280;42502;40.732;-74.254;2023-04-03T17:32:46;100870.97;;;21.23;31.89
56630;BME280;42502;40.732;-74.254;2023-04-03T17:34:47;100871.88;;;21.27;31.64
56630;BME280;42502;40.732;-74.254;2023-04-03T17:36:48;100883.13;;;21.27;31.80
56630;BME280;42502;40.732;-74.254;2023-04-03T17:38:52;100877.28;;;21.32;31.83
56630;BME280;42502;40.732;-74.254;2023-04-03T17:41:05;100857.13;;;21.30;31.98
56630;BME280;42502;40.732;-74.254;2023-04-03T17:43:06;100860.63;;;21.39;31.95
56630;BME280;42502;40.732;-74.254;2023-04-03T17:45:07;100852.66;;;21.41;31.94
56630;BME280;42502;40.732;-74.254;2023-04-03T17:47:08;100856.75;;;21.44;31.97
56630;BME280;42502;40.732;-74.254;2023-04-03T17:49:09;100844.31;;;21.45;32.28
56630;BME280;42502;40.732;-74.254;2023-04-03T17:51:17;100844.13;;;21.50;31.97
56630;BME280;42502;40.732;-74.254;2023-04-03T17:53:18;100844.22;;;21.54;32.18
56630;BME280;42502;40.732;-74.254;2023-04-03T17:55:19;100825.34;;;21.42;32.05
56630;BME280;42502;40.732;-74.254;2023-04-03T17:57:23;100840.69;;;21.57;31.94
56630;BME280;42502;40.732;-74.254;2023-04-03T17:59:24;100837.50;;;21.58;32.17
56630;BME280;42502;40.732;-74.254;2023-04-03T18:01:31;100829.16;;;21.62;32.10
56630;BME280;42502;40.732;-74.254;2023-04-03T18:03:32;100819.56;;;21.63;32.14
56630;BME280;42502;40.732;-74.254;2023-04-03T18:05:34;100816.03;;;21.66;32.08
56630;BME280;42502;40.732;-74.254;2023-04-03T18:07:42;100823.03;;;21.72;31.97
56630;BME280;42502;40.732;-74.254;2023-04-03T18:09:45;100792.53;;;21.58;31.96
56630;BME280;42502;40.732;-74.254;2023-04-03T18:11:47;100809.56;;;21.78;31.98
56630;BME280;42502;40.732;-74.254;2023-04-03T18:13:49;100806.28;;;21.76;31.92
56630;BME280;42502;40.732;-74.254;2023-04-03T18:15:50;100799.66;;;21.84;32.00
56630;BME280;42502;40.732;-74.254;2023-04-03T18:17:53;100790.06;;;21.85;32.09
56630;BME280;42502;40.732;-74.254;2023-04-03T18:19:56;100774.91;;;21.90;32.05
56630;BME280;42502;40.732;-74.254;2023-04-03T18:22:00;100772.47;;;21.88;31.87
56630;BME280;42502;40.732;-74.254;2023-04-03T18:24:04;100771.38;;;21.93;31.99
56630;BME280;42502;40.732;-74.254;2023-04-03T18:26:08;100775.09;;;21.97;32.19
56630;BME280;42502;40.732;-74.254;2023-04-03T18:28:10;100750.13;;;21.95;31.95
56630;BME280;42502;40.732;-74.254;2023-04-03T18:30:16;100762.84;;;22.05;32.09
56630;BME280;42502;40.732;-74.254;2023-04-03T18:32:19;100766.59;;;22.09;31.91
56630;BME280;42502;40.732;-74.254;2023-04-03T18:34:20;100772.28;;;22.13;31.93
56630;BME280;42502;40.732;-74.254;2023-04-03T18:36:21;100744.53;;;22.11;31.98
56630;BME280;42502;40.732;-74.254;2023-04-03T18:38:23;100760.75;;;22.18;31.96
56630;BME280;42502;40.732;-74.254;2023-04-03T18:40:24;100740.34;;;22.21;31.91
56630;BME280;42502;40.732;-74.254;2023-04-03T18:42:25;100735.25;;;22.27;31.72
56630;BME280;42502;40.732;-74.254;2023-04-03T18:44:29;100720.00;;;22.28;31.90
56630;BME280;42502;40.732;-74.254;2023-04-03T18:46:31;100715.75;;;22.34;31.62
56630;BME280;42502;40.732;-74.254;2023-04-03T18:48:33;100710.94;;;22.34;31.82
56630;BME280;42502;40.732;-74.254;2023-04-03T18:50:35;100703.78;;;22.37;31.38
56630;BME280;42502;40.732;-74.254;2023-04-03T18:52:38;100699.88;;;22.42;31.51
56630;BME280;42502;40.732;-74.254;2023-04-03T18:54:39;100707.13;;;22.43;31.42
56630;BME280;42502;40.732;-74.254;2023-04-03T18:56:47;100693.50;;;22.45;31.37
56630;BME280;42502;40.732;-74.254;2023-04-03T18:58:47;100693.56;;;22.48;31.56
56630;BME280;42502;40.732;-74.254;2023-04-03T19:00:48;100702.91;;;22.52;31.26
56630;BME280;42502;40.732;-74.254;2023-04-03T19:02:49;100696.56;;;22.56;31.33
56630;BME280;42502;40.732;-74.254;2023-04-03T19:04:51;100688.53;;;22.58;31.19
56630;BME280;42502;40.732;-74.254;2023-04-03T19:06:53;100675.75;;;22.60;31.15
56630;BME280;42502;40.732;-74.254;2023-04-03T19:08:54;100681.75;;;22.59;31.19
56630;BME280;42502;40.732;-74.254;2023-04-03T19:10:55;100674.63;;;22.65;31.04
56630;BME280;42502;40.732;-74.254;2023-04-03T19:12:56;100678.66;;;22.64;31.20
56630;BME280;42502;40.732;-74.254;2023-04-03T19:15:00;100686.00;;;22.68;30.90
56630;BME280;42502;40.732;-74.254;2023-04-03T19:17:01;100674.00;;;22.71;30.96
56630;BME280;42502;40.732;-74.254;2023-04-03T19:19:03;100672.41;;;22.74;30.92
56630;BME280;42502;40.732;-74.254;2023-04-03T19:21:04;100670.88;;;22.77;30.89
56630;BME280;42502;40.732;-74.254;2023-04-03T19:23:05;100660.88;;;22.79;30.98
56630;BME280;42502;40.732;-74.254;2023-04-03T19:25:09;100670.56;;;22.82;30.64
56630;BME280;42502;40.732;-74.254;2023-04-03T19:27:10;100660.56;;;22.84;30.76
56630;BME280;42502;40.732;-74.254;2023-04-03T19:29:11;100649.75;;;22.86;30.86
56630;BME280;42502;40.732;-74.254;2023-04-03T19:31:17;100641.75;;;22.88;30.90
56630;BME280;42502;40.732;-74.254;2023-04-03T19:33:21;100643.81;;;22.92;30.94
56630;BME280;42502;40.732;-74.254;2023-04-03T19:35:22;100631.00;;;22.94;30.69
56630;BME280;42502;40.732;-74.254;2023-04-03T19:37:23;100620.53;;;22.95;30.73
56630;BME280;42502;40.732;-74.254;2023-04-03T19:39:24;100608.47;;;22.94;30.43
56630;BME280;42502;40.732;-74.254;2023-04-03T19:41:27;100621.06;;;23.00;30.71
56630;BME280;42502;40.732;-74.254;2023-04-03T19:43:29;100611.03;;;23.03;30.46
56630;BME280;42502;40.732;-74.254;2023-04-03T19:45:30;100611.03;;;23.03;30.47
56630;BME280;42502;40.732;-74.254;2023-04-03T19:47:33;100606.28;;;23.07;30.77
56630;BME280;42502;40.732;-74.254;2023-04-03T19:49:34;100599.47;;;23.08;30.62
56630;BME280;42502;40.732;-74.254;2023-04-03T19:51:35;100595.81;;;23.07;30.63
56630;BME280;42502;40.732;-74.254;2023-04-03T19:53:36;100585.47;;;23.12;30.80
56630;BME280;42502;40.732;-74.254;2023-04-03T19:55:37;100574.91;;;23.09;30.60
56630;BME280;42502;40.732;-74.254;2023-04-03T19:57:38;100571.75;;;23.10;30.63
56630;BME280;42502;40.732;-74.254;2023-04-03T19:59:39;100570.25;;;23.16;30.55
56630;BME280;42502;40.732;-74.254;2023-04-03T20:01:40;100565.81;;;23.15;30.83
56630;BME280;42502;40.732;-74.254;2023-04-03T20:03:40;100561.81;;;23.16;30.64
56630;BME280;42502;40.732;-74.254;2023-04-03T20:05:42;100556.22;;;23.20;30.89
56630;BME280;42502;40.732;-74.254;2023-04-03T20:07:45;100548.59;;;23.20;30.55
56630;BME280;42502;40.732;-74.254;2023-04-03T20:09:47;100559.13;;;23.23;30.74
56630;BME280;42502;40.732;-74.254;2023-04-03T20:11:50;100565.94;;;23.22;30.58
56630;BME280;42502;40.732;-74.254;2023-04-03T20:13:53;100556.72;;;23.26;30.77
56630;BME280;42502;40.732;-74.254;2023-04-03T20:15:54;100545.47;;;23.26;30.62
56630;BME280;42502;40.732;-74.254;2023-04-03T20:17:58;100530.09;;;23.23;30.67